sensor_id;sensor_type;location;lat;lon;timestamp;pressure;altitude;pressure_sealevel;temperature;humidity
62779;BME280;48821;48.796;2.396;2023-04-08T00:00:48;102092.41;;;11.17;55.00
62779;BME280;48821;48.796;2.396;2023-04-08T00:01:59;102100.34;;;11.16;54.93
62779;BME280;48821;48.796;2.396;2023-04-08T00:03:10;102093.34;;;11.13;54.91
62779;BME280;48821;48.796;2.396;2023-04-08T00:04:23;102103.03;;;11.11;54.97
62779;BME280;48821;48.796;2.396;2023-04-08T00:05:38;102091.63;;;11.09;54.99
62779;BME280;48821;48.796;2.396;2023-04-08T00:06:48;102102.19;;;11.07;55.12
62779;BME280;48821;48.796;2.396;2023-04-08T00:07:59;102102.19;;;11.07;55.53
62779;BME280;48821;48.796;2.396;2023-04-08T00:09:10;102106.56;;;11.07;55.64
62779;BME280;48821;48.796;2.396;2023-04-08T00:10:21;102109.22;;;11.07;55.34
62779;BME280;48821;48.796;2.396;2023-04-08T00:11:32;102105.72;;;11.06;55.72
62779;BME280;48821;48.796;2.396;2023-04-08T00:12:43;102104.84;;;11.06;55.60
62779;BME280;48821;48.796;2.396;2023-04-08T00:13:56;102098.72;;;11.05;55.81
62779;BME280;48821;48.796;2.396;2023-04-08T00:15:07;102097.84;;;11.05;55.63
62779;BME280;48821;48.796;2.396;2023-04-08T00:16:18;102102.22;;;11.04;55.60
62779;BME280;48821;48.796;2.396;2023-04-08T00:17:29;102098.75;;;11.03;55.65
62779;BME280;48821;48.796;2.396;2023-04-08T00:18:40;102101.38;;;11.03;55.83
62779;BME280;48821;48.796;2.396;2023-04-08T00:19:53;102100.47;;;11.05;55.65
62779;BME280;48821;48.796;2.396;2023-04-08T00:21:04;102100.50;;;11.03;55.73
62779;BME280;48821;48.796;2.396;2023-04-08T00:22:15;102094.41;;;11.01;55.68
62779;BME280;48821;48.796;2.396;2023-04-08T00:23:29;102103.16;;;11.00;55.89
62779;BME280;48821;48.796;2.396;2023-04-08T00:24:40;102105.78;;;11.00;55.90
62779;BME280;48821;48.796;2.396;2023-04-08T00:25:51;102111.06;;;11.00;55.67
62779;BME280;48821;48.796;2.396;2023-04-08T00:27:01;102109.31;;;11.00;55.85
62779;BME280;48821;48.796;2.396;2023-04-08T00:28:12;102102.28;;;10.99;55.69
62779;BME280;48821;48.796;2.396;2023-04-08T00:29:23;102099.69;;;10.98;55.63
62779;BME280;48821;48.796;2.396;2023-04-08T00:30:34;102105.81;;;10.97;56.10
62779;BME280;48821;48.796;2.396;2023-04-08T00:31:48;102102.34;;;10.96;55.72
62779;BME280;48821;48.796;2.396;2023-04-08T00:32:59;102102.34;;;10.96;55.86
62779;BME280;48821;48.796;2.396;2023-04-08T00:34:10;102102.34;;;10.96;55.78
62779;BME280;48821;48.796;2.396;2023-04-08T00:35:22;102105.81;;;10.97;55.85
62779;BME280;48821;48.796;2.396;2023-04-08T00:36:35;102104.09;;;10.96;55.70
62779;BME280;48821;48.796;2.396;2023-04-08T00:37:45;102104.97;;;10.96;55.77
62779;BME280;48821;48.796;2.396;2023-04-08T00:38:57;102107.59;;;10.96;55.82
62779;BME280;48821;48.796;2.396;2023-04-08T00:40:08;102106.72;;;10.96;56.08
62779;BME280;48821;48.796;2.396;2023-04-08T00:41:19;102108.44;;;10.97;55.64
62779;BME280;48821;48.796;2.396;2023-04-08T00:42:30;102105.84;;;10.95;55.73
62779;BME280;48821;48.796;2.396;2023-04-08T00:43:40;102105.88;;;10.94;55.86
62779;BME280;48821;48.796;2.396;2023-04-08T00:44:51;102112.00;;;10.94;56.00
62779;BME280;48821;48.796;2.396;2023-04-08T00:46:03;102107.59;;;10.95;56.15
62779;BME280;48821;48.796;2.396;2023-04-08T00:47:14;102112.00;;;10.94;55.84
62779;BME280;48821;48.796;2.396;2023-04-08T00:48:25;102111.13;;;10.95;55.83
62779;BME280;48821;48.796;2.396;2023-04-08T00:49:36;102110.28;;;10.93;56.10
62779;BME280;48821;48.796;2.396;2023-04-08T00:50:47;102107.63;;;10.93;56.01
62779;BME280;48821;48.796;2.396;2023-04-08T00:51:58;102111.16;;;10.92;55.97
62779;BME280;48821;48.796;2.396;2023-04-08T00:53:16;102112.94;;;10.90;56.16
62779;BME280;48821;48.796;2.396;2023-04-08T00:54:27;102114.72;;;10.88;56.07
62779;BME280;48821;48.796;2.396;2023-04-08T00:55:38;102122.59;;;10.88;56.01
62779;BME280;48821;48.796;2.396;2023-04-08T00:56:49;102112.13;;;10.86;56.37
62779;BME280;48821;48.796;2.396;2023-04-08T00:58:00;102120.91;;;10.84;56.30
62779;BME280;48821;48.796;2.396;2023-04-08T00:59:10;102114.78;;;10.80;56.04
62779;BME280;48821;48.796;2.396;2023-04-08T01:00:22;102119.19;;;10.79;56.54
62779;BME280;48821;48.796;2.396;2023-04-08T01:01:42;102120.06;;;10.80;56.39
62779;BME280;48821;48.796;2.396;2023-04-08T01:04:31;102120.13;;;10.75;56.38
62779;BME280;48821;48.796;2.396;2023-04-08T01:07:17;102111.34;;;10.75;56.55
62779;BME280;48821;48.796;2.396;2023-04-08T01:08:29;102116.63;;;10.73;56.45
62779;BME280;48821;48.796;2.396;2023-04-08T01:09:45;102112.25;;;10.72;56.16
62779;BME280;48821;48.796;2.396;2023-04-08T01:11:00;102110.50;;;10.73;56.34
62779;BME280;48821;48.796;2.396;2023-04-08T01:12:19;102109.63;;;10.72;56.63
62779;BME280;48821;48.796;2.396;2023-04-08T01:13:37;102116.66;;;10.72;56.45
62779;BME280;48821;48.796;2.396;2023-04-08T01:14:51;102114.03;;;10.72;56.31
62779;BME280;48821;48.796;2.396;2023-04-08T01:16:07;102115.78;;;10.71;56.14
62779;BME280;48821;48.796;2.396;2023-04-08T01:17:20;102115.78;;;10.71;56.66
62779;BME280;48821;48.796;2.396;2023-04-08T01:18:32;102114.91;;;10.71;56.38
62779;BME280;48821;48.796;2.396;2023-04-08T01:19:43;102112.31;;;10.69;56.68
62779;BME280;48821;48.796;2.396;2023-04-08T01:20:56;102117.56;;;10.69;55.75
62779;BME280;48821;48.796;2.396;2023-04-08T01:22:31;102114.06;;;10.67;56.39
62779;BME280;48821;48.796;2.396;2023-04-08T01:24:08;102110.63;;;10.62;56.65
62779;BME280;48821;48.796;2.396;2023-04-08T01:25:35;102114.19;;;10.56;56.40
62779;BME280;48821;48.796;2.396;2023-04-08T01:26:49;102114.25;;;10.51;56.73
62779;BME280;48821;48.796;2.396;2023-04-08T01:28:05;102111.59;;;10.48;56.42
62779;BME280;48821;48.796;2.396;2023-04-08T01:29:17;102121.25;;;10.47;56.04
62779;BME280;48821;48.796;2.396;2023-04-08T01:30:31;102109.84;;;10.47;56.20
62779;BME280;48821;48.796;2.396;2023-04-08T01:31:46;102116.91;;;10.46;56.32
62779;BME280;48821;48.796;2.396;2023-04-08T01:32:58;102114.25;;;10.45;56.57
62779;BME280;48821;48.796;2.396;2023-04-08T01:34:14;102113.41;;;10.44;56.05
62779;BME280;48821;48.796;2.396;2023-04-08T01:35:29;102114.25;;;10.45;56.35
62779;BME280;48821;48.796;2.396;2023-04-08T01:36:44;102116.06;;;10.41;56.45
62779;BME280;48821;48.796;2.396;2023-04-08T01:37:59;102116.06;;;10.40;56.42
62779;BME280;48821;48.796;2.396;2023-04-08T01:39:10;102113.47;;;10.38;56.33
62779;BME280;48821;48.796;2.396;2023-04-08T01:40:23;102117.84;;;10.38;56.74
62779;BME280;48821;48.796;2.396;2023-04-08T01:41:37;102109.94;;;10.38;56.39
62779;BME280;48821;48.796;2.396;2023-04-08T01:42:49;102109.97;;;10.39;56.08
62779;BME280;48821;48.796;2.396;2023-04-08T01:44:03;102109.94;;;10.38;56.12
62779;BME280;48821;48.796;2.396;2023-04-08T01:45:17;102109.94;;;10.38;56.27
62779;BME280;48821;48.796;2.396;2023-04-08T01:46:31;102114.34;;;10.39;56.18
62779;BME280;48821;48.796;2.396;2023-04-08T01:47:44;102114.34;;;10.39;56.40
62779;BME280;48821;48.796;2.396;2023-04-08T01:48:56;102113.47;;;10.38;56.14
62779;BME280;48821;48.796;2.396;2023-04-08T01:50:11;102109.09;;;10.39;56.18
62779;BME280;48821;48.796;2.396;2023-04-08T01:51:27;102114.34;;;10.39;56.22
62779;BME280;48821;48.796;2.396;2023-04-08T01:52:47;102112.59;;;10.39;56.49
62779;BME280;48821;48.796;2.396;2023-04-08T01:54:01;102105.56;;;10.38;56.50
62779;BME280;48821;48.796;2.396;2023-04-08T01:55:15;102115.22;;;10.38;56.50
62779;BME280;48821;48.796;2.396;2023-04-08T01:56:32;102107.31;;;10.38;56.15
62779;BME280;48821;48.796;2.396;2023-04-08T01:57:52;102113.50;;;10.37;56.54
62779;BME280;48821;48.796;2.396;2023-04-08T01:59:09;102116.97;;;10.37;56.12
62779;BME280;48821;48.796;2.396;2023-04-08T02:00:26;102116.13;;;10.37;56.61
62779;BME280;48821;48.796;2.396;2023-04-08T02:01:42;102114.38;;;10.32;56.60
62779;BME280;48821;48.796;2.396;2023-04-08T02:02:54;102114.41;;;10.31;56.30
62779;BME280;48821;48.796;2.396;2023-04-08T02:04:09;102115.28;;;10.30;56.17
62779;BME280;48821;48.796;2.396;2023-04-08T02:05:19;102105.69;;;10.27;56.45
62779;BME280;48821;48.796;2.396;2023-04-08T02:06:32;102110.03;;;10.28;56.55
62779;BME280;48821;48.796;2.396;2023-04-08T02:07:49;102104.81;;;10.27;56.35
62779;BME280;48821;48.796;2.396;2023-04-08T02:09:02;102103.97;;;10.24;56.42
62779;BME280;48821;48.796;2.396;2023-04-08T02:10:16;102111.84;;;10.24;56.56
62779;BME280;48821;48.796;2.396;2023-04-08T02:11:26;102119.72;;;10.24;57.15
62779;BME280;48821;48.796;2.396;2023-04-08T02:12:38;102114.50;;;10.21;56.66
62779;BME280;48821;48.796;2.396;2023-04-08T02:13:50;102115.38;;;10.20;56.70
62779;BME280;48821;48.796;2.396;2023-04-08T02:15:05;102114.50;;;10.20;56.43
62779;BME280;48821;48.796;2.396;2023-04-08T02:16:31;102113.63;;;10.18;56.68
62779;BME280;48821;48.796;2.396;2023-04-08T02:17:49;102114.53;;;10.17;56.76
62779;BME280;48821;48.796;2.396;2023-04-08T02:20:41;102118.06;;;10.17;56.66
62779;BME280;48821;48.796;2.396;2023-04-08T02:22:00;102114.53;;;10.17;56.89
62779;BME280;48821;48.796;2.396;2023-04-08T02:23:23;102111.06;;;10.15;56.63
62779;BME280;48821;48.796;2.396;2023-04-08T02:24:34;102115.41;;;10.16;56.82
62779;BME280;48821;48.796;2.396;2023-04-08T02:25:46;102110.19;;;10.14;56.66
62779;BME280;48821;48.796;2.396;2023-04-08T02:27:02;102110.19;;;10.12;56.61
62779;BME280;48821;48.796;2.396;2023-04-08T02:28:17;102111.97;;;10.09;56.91
62779;BME280;48821;48.796;2.396;2023-04-08T02:29:33;102114.59;;;10.09;56.97
62779;BME280;48821;48.796;2.396;2023-04-08T02:30:55;102112.00;;;10.07;57.01
62779;BME280;48821;48.796;2.396;2023-04-08T02:32:10;102109.38;;;10.07;56.73
62779;BME280;48821;48.796;2.396;2023-04-08T02:33:24;102111.13;;;10.05;56.70
62779;BME280;48821;48.796;2.396;2023-04-08T02:34:40;102106.75;;;10.06;56.86
62779;BME280;48821;48.796;2.396;2023-04-08T02:35:52;102112.88;;;10.06;57.11
62779;BME280;48821;48.796;2.396;2023-04-08T02:37:07;102112.03;;;10.04;56.95
62779;BME280;48821;48.796;2.396;2023-04-08T02:38:21;102109.41;;;10.04;56.60
62779;BME280;48821;48.796;2.396;2023-04-08T02:39:35;102108.53;;;10.04;57.19
62779;BME280;48821;48.796;2.396;2023-04-08T02:40:49;102112.91;;;10.03;56.90
62779;BME280;48821;48.796;2.396;2023-04-08T02:42:03;102110.25;;;10.03;56.82
62779;BME280;48821;48.796;2.396;2023-04-08T02:43:14;102111.16;;;10.04;56.89
62779;BME280;48821;48.796;2.396;2023-04-08T02:44:28;102114.66;;;10.04;56.75
62779;BME280;48821;48.796;2.396;2023-04-08T02:45:42;102105.00;;;10.03;56.99
62779;BME280;48821;48.796;2.396;2023-04-08T02:46:56;102107.66;;;10.05;57.07
62779;BME280;48821;48.796;2.396;2023-04-08T02:48:09;102110.25;;;10.03;56.60
62779;BME280;48821;48.796;2.396;2023-04-08T02:49:22;102113.78;;;10.00;57.06
62779;BME280;48821;48.796;2.396;2023-04-08T02:50:36;102109.44;;;9.99;56.50
62779;BME280;48821;48.796;2.396;2023-04-08T02:51:49;102118.19;;;10.00;57.10
62779;BME280;48821;48.796;2.396;2023-04-08T02:53:02;102118.19;;;10.00;56.94
62779;BME280;48821;48.796;2.396;2023-04-08T02:54:13;102118.19;;;10.00;57.00
62779;BME280;48821;48.796;2.396;2023-04-08T02:55:24;102118.19;;;10.00;56.92
62779;BME280;48821;48.796;2.396;2023-04-08T02:56:37;102110.31;;;10.00;56.94
62779;BME280;48821;48.796;2.396;2023-04-08T02:57:50;102115.56;;;10.00;56.69
62779;BME280;48821;48.796;2.396;2023-04-08T02:59:04;102120.81;;;10.00;57.38
62779;BME280;48821;48.796;2.396;2023-04-08T03:00:17;102117.31;;;9.99;56.99
62779;BME280;48821;48.796;2.396;2023-04-08T03:01:30;102113.81;;;9.99;56.72
62779;BME280;48821;48.796;2.396;2023-04-08T03:02:43;102115.59;;;9.97;56.67
62779;BME280;48821;48.796;2.396;2023-04-08T03:03:57;102119.09;;;9.97;56.90
62779;BME280;48821;48.796;2.396;2023-04-08T03:05:10;102117.34;;;9.96;56.77
62779;BME280;48821;48.796;2.396;2023-04-08T03:06:23;102114.72;;;9.95;56.77
62779;BME280;48821;48.796;2.396;2023-04-08T03:07:37;102117.38;;;9.95;56.79
62779;BME280;48821;48.796;2.396;2023-04-08T03:08:47;102114.72;;;9.93;57.26
62779;BME280;48821;48.796;2.396;2023-04-08T03:09:58;102115.63;;;9.92;57.12
62779;BME280;48821;48.796;2.396;2023-04-08T03:11:09;102117.41;;;9.90;56.84
62779;BME280;48821;48.796;2.396;2023-04-08T03:12:22;102110.38;;;9.89;57.07
62779;BME280;48821;48.796;2.396;2023-04-08T03:13:33;102125.28;;;9.88;57.13
62779;BME280;48821;48.796;2.396;2023-04-08T03:14:44;102123.53;;;9.87;57.02
62779;BME280;48821;48.796;2.396;2023-04-08T03:15:55;102120.03;;;9.85;56.85
62779;BME280;48821;48.796;2.396;2023-04-08T03:17:07;102125.34;;;9.82;56.73
62779;BME280;48821;48.796;2.396;2023-04-08T03:18:18;102118.34;;;9.78;56.64
62779;BME280;48821;48.796;2.396;2023-04-08T03:19:29;102125.38;;;9.77;56.97
62779;BME280;48821;48.796;2.396;2023-04-08T03:20:40;102119.25;;;9.77;56.77
62779;BME280;48821;48.796;2.396;2023-04-08T03:21:53;102119.25;;;9.77;56.72
62779;BME280;48821;48.796;2.396;2023-04-08T03:23:04;102114.84;;;9.76;57.17
62779;BME280;48821;48.796;2.396;2023-04-08T03:24:15;102113.13;;;9.75;57.18
62779;BME280;48821;48.796;2.396;2023-04-08T03:25:26;102116.63;;;9.74;57.11
62779;BME280;48821;48.796;2.396;2023-04-08T03:26:41;102113.13;;;9.73;57.21
62779;BME280;48821;48.796;2.396;2023-04-08T03:27:54;102117.53;;;9.73;57.04
62779;BME280;48821;48.796;2.396;2023-04-08T03:29:05;102114.00;;;9.71;57.50
62779;BME280;48821;48.796;2.396;2023-04-08T03:30:16;102110.53;;;9.68;57.01
62779;BME280;48821;48.796;2.396;2023-04-08T03:31:27;102119.31;;;9.67;57.41
62779;BME280;48821;48.796;2.396;2023-04-08T03:32:38;102115.81;;;9.65;56.88
62779;BME280;48821;48.796;2.396;2023-04-08T03:33:49;102119.31;;;9.66;57.49
62779;BME280;48821;48.796;2.396;2023-04-08T03:35:01;102117.56;;;9.66;57.25
62779;BME280;48821;48.796;2.396;2023-04-08T03:36:14;102114.06;;;9.67;57.39
62779;BME280;48821;48.796;2.396;2023-04-08T03:37:27;102124.56;;;9.66;57.14
62779;BME280;48821;48.796;2.396;2023-04-08T03:38:38;102119.31;;;9.66;57.31
62779;BME280;48821;48.796;2.396;2023-04-08T03:39:49;102123.69;;;9.65;57.58
62779;BME280;48821;48.796;2.396;2023-04-08T03:40:59;102116.69;;;9.64;57.08
62779;BME280;48821;48.796;2.396;2023-04-08T03:42:10;102121.06;;;9.65;56.94
62779;BME280;48821;48.796;2.396;2023-04-08T03:43:21;102121.06;;;9.64;57.28
62779;BME280;48821;48.796;2.396;2023-04-08T03:44:32;102116.72;;;9.63;57.42
62779;BME280;48821;48.796;2.396;2023-04-08T03:45:43;102118.47;;;9.62;57.61
62779;BME280;48821;48.796;2.396;2023-04-08T03:46:54;102118.47;;;9.62;57.05
62779;BME280;48821;48.796;2.396;2023-04-08T03:48:05;102121.09;;;9.62;57.33
62779;BME280;48821;48.796;2.396;2023-04-08T03:49:16;102127.22;;;9.61;57.60
62779;BME280;48821;48.796;2.396;2023-04-08T03:50:27;102119.34;;;9.60;57.41
62779;BME280;48821;48.796;2.396;2023-04-08T03:51:38;102121.97;;;9.60;57.38
62779;BME280;48821;48.796;2.396;2023-04-08T03:52:49;102127.22;;;9.60;57.58
62779;BME280;48821;48.796;2.396;2023-04-08T03:54:00;102116.72;;;9.60;57.32
62779;BME280;48821;48.796;2.396;2023-04-08T03:55:12;102123.72;;;9.61;57.17
62779;BME280;48821;48.796;2.396;2023-04-08T03:56:22;102125.47;;;9.60;57.66
62779;BME280;48821;48.796;2.396;2023-04-08T03:57:34;102125.47;;;9.60;57.47
62779;BME280;48821;48.796;2.396;2023-04-08T03:58:45;102130.72;;;9.60;57.64
62779;BME280;48821;48.796;2.396;2023-04-08T03:59:56;102128.09;;;9.59;57.65
62779;BME280;48821;48.796;2.396;2023-04-08T04:01:08;102135.09;;;9.58;57.37
62779;BME280;48821;48.796;2.396;2023-04-08T04:02:18;102124.59;;;9.58;57.37
62779;BME280;48821;48.796;2.396;2023-04-08T04:03:29;102125.50;;;9.57;57.47
62779;BME280;48821;48.796;2.396;2023-04-08T04:04:40;102131.63;;;9.57;57.23
62779;BME280;48821;48.796;2.396;2023-04-08T04:05:52;102129.00;;;9.57;57.37
62779;BME280;48821;48.796;2.396;2023-04-08T04:07:02;102125.50;;;9.57;57.68
62779;BME280;48821;48.796;2.396;2023-04-08T04:08:13;102124.63;;;9.56;57.27
62779;BME280;48821;48.796;2.396;2023-04-08T04:09:24;102126.38;;;9.56;57.43
62779;BME280;48821;48.796;2.396;2023-04-08T04:10:35;102127.25;;;9.55;57.66
62779;BME280;48821;48.796;2.396;2023-04-08T04:11:46;102122.00;;;9.55;57.29
62779;BME280;48821;48.796;2.396;2023-04-08T04:12:57;102124.63;;;9.55;57.69
62779;BME280;48821;48.796;2.396;2023-04-08T04:14:08;102128.13;;;9.54;57.34
62779;BME280;48821;48.796;2.396;2023-04-08T04:15:21;102124.63;;;9.53;57.58
62779;BME280;48821;48.796;2.396;2023-04-08T04:16:32;102123.78;;;9.53;57.79
62779;BME280;48821;48.796;2.396;2023-04-08T04:17:43;102127.28;;;9.52;57.84
62779;BME280;48821;48.796;2.396;2023-04-08T04:18:54;102128.13;;;9.51;57.45
62779;BME280;48821;48.796;2.396;2023-04-08T04:20:06;102126.41;;;9.50;57.56
62779;BME280;48821;48.796;2.396;2023-04-08T04:21:17;102130.78;;;9.49;57.69
62779;BME280;48821;48.796;2.396;2023-04-08T04:22:28;102128.19;;;9.48;57.79
62779;BME280;48821;48.796;2.396;2023-04-08T04:23:39;102132.56;;;9.47;57.68
62779;BME280;48821;48.796;2.396;2023-04-08T04:24:50;102127.31;;;9.45;58.00
62779;BME280;48821;48.796;2.396;2023-04-08T04:26:01;102129.94;;;9.44;57.62
62779;BME280;48821;48.796;2.396;2023-04-08T04:27:12;102138.72;;;9.43;57.75
62779;BME280;48821;48.796;2.396;2023-04-08T04:28:22;102132.56;;;9.41;57.87
62779;BME280;48821;48.796;2.396;2023-04-08T04:29:33;102137.81;;;9.41;57.65
62779;BME280;48821;48.796;2.396;2023-04-08T04:30:44;102133.50;;;9.38;58.02
62779;BME280;48821;48.796;2.396;2023-04-08T04:31:55;102135.22;;;9.36;57.67
62779;BME280;48821;48.796;2.396;2023-04-08T04:33:06;102143.97;;;9.37;57.38
62779;BME280;48821;48.796;2.396;2023-04-08T04:34:18;102132.63;;;9.34;57.26
62779;BME280;48821;48.796;2.396;2023-04-08T04:35:28;102136.13;;;9.35;57.74
62779;BME280;48821;48.796;2.396;2023-04-08T04:36:39;102138.72;;;9.33;57.75
62779;BME280;48821;48.796;2.396;2023-04-08T04:37:50;102132.63;;;9.33;57.63
62779;BME280;48821;48.796;2.396;2023-04-08T04:39:01;102137.88;;;9.33;57.79
62779;BME280;48821;48.796;2.396;2023-04-08T04:40:12;102144.88;;;9.32;57.46
62779;BME280;48821;48.796;2.396;2023-04-08T04:41:23;102140.50;;;9.31;57.83
62779;BME280;48821;48.796;2.396;2023-04-08T04:42:34;102149.25;;;9.30;57.64
62779;BME280;48821;48.796;2.396;2023-04-08T04:43:46;102144.91;;;9.28;57.94
62779;BME280;48821;48.796;2.396;2023-04-08T04:44:56;102144.88;;;9.26;57.97
62779;BME280;48821;48.796;2.396;2023-04-08T04:46:10;102151.03;;;9.25;57.81
62779;BME280;48821;48.796;2.396;2023-04-08T04:47:21;102148.41;;;9.23;57.70
62779;BME280;48821;48.796;2.396;2023-04-08T04:48:32;102152.81;;;9.23;57.83
62779;BME280;48821;48.796;2.396;2023-04-08T04:49:43;102157.16;;;9.22;57.99
62779;BME280;48821;48.796;2.396;2023-04-08T04:50:56;102151.91;;;9.22;58.17
62779;BME280;48821;48.796;2.396;2023-04-08T04:52:09;102156.28;;;9.22;57.89
62779;BME280;48821;48.796;2.396;2023-04-08T04:53:20;102158.03;;;9.21;58.12
62779;BME280;48821;48.796;2.396;2023-04-08T04:54:31;102158.94;;;9.20;58.13
62779;BME280;48821;48.796;2.396;2023-04-08T04:55:42;102159.78;;;9.19;58.01
62779;BME280;48821;48.796;2.396;2023-04-08T04:56:53;102165.94;;;9.18;58.13
62779;BME280;48821;48.796;2.396;2023-04-08T04:58:04;102165.94;;;9.17;58.33
62779;BME280;48821;48.796;2.396;2023-04-08T04:59:15;102161.56;;;9.14;57.99
62779;BME280;48821;48.796;2.396;2023-04-08T05:00:25;102176.47;;;9.10;58.33
62779;BME280;48821;48.796;2.396;2023-04-08T05:01:36;102171.19;;;9.09;58.28
62779;BME280;48821;48.796;2.396;2023-04-08T05:02:47;102176.44;;;9.09;58.36
62779;BME280;48821;48.796;2.396;2023-04-08T05:03:58;102179.97;;;9.08;58.16
62779;BME280;48821;48.796;2.396;2023-04-08T05:05:09;102168.59;;;9.06;58.28
62779;BME280;48821;48.796;2.396;2023-04-08T05:06:22;102177.31;;;9.06;57.95
62779;BME280;48821;48.796;2.396;2023-04-08T05:07:37;102174.69;;;9.06;57.86
62779;BME280;48821;48.796;2.396;2023-04-08T05:08:50;102178.19;;;9.07;58.35
62779;BME280;48821;48.796;2.396;2023-04-08T05:10:01;102181.72;;;9.06;57.81
62779;BME280;48821;48.796;2.396;2023-04-08T05:11:12;102176.47;;;9.06;58.12
62779;BME280;48821;48.796;2.396;2023-04-08T05:12:23;102176.47;;;9.03;58.20
62779;BME280;48821;48.796;2.396;2023-04-08T05:13:34;102182.59;;;9.03;57.58
62779;BME280;48821;48.796;2.396;2023-04-08T05:14:45;102183.47;;;9.04;58.31
62779;BME280;48821;48.796;2.396;2023-04-08T05:15:56;102179.97;;;9.03;58.51
62779;BME280;48821;48.796;2.396;2023-04-08T05:17:07;102179.09;;;9.03;57.99
62779;BME280;48821;48.796;2.396;2023-04-08T05:18:18;102179.09;;;9.03;58.52
62779;BME280;48821;48.796;2.396;2023-04-08T05:19:29;102180.88;;;9.04;58.60
62779;BME280;48821;48.796;2.396;2023-04-08T05:20:40;102184.34;;;9.03;58.55
62779;BME280;48821;48.796;2.396;2023-04-08T05:21:51;102183.47;;;9.04;58.54
62779;BME280;48821;48.796;2.396;2023-04-08T05:23:02;102187.84;;;9.03;58.55
62779;BME280;48821;48.796;2.396;2023-04-08T05:24:13;102187.84;;;9.02;58.60
62779;BME280;48821;48.796;2.396;2023-04-08T05:25:24;102182.59;;;9.02;58.72
62779;BME280;48821;48.796;2.396;2023-04-08T05:26:36;102188.72;;;9.00;58.19
62779;BME280;48821;48.796;2.396;2023-04-08T05:27:47;102193.97;;;9.00;58.39
62779;BME280;48821;48.796;2.396;2023-04-08T05:28:58;102191.34;;;9.00;58.77
62779;BME280;48821;48.796;2.396;2023-04-08T05:30:09;102197.47;;;8.99;58.45
62779;BME280;48821;48.796;2.396;2023-04-08T05:31:20;102193.13;;;8.98;58.36
62779;BME280;48821;48.796;2.396;2023-04-08T05:32:31;102193.13;;;8.98;58.70
62779;BME280;48821;48.796;2.396;2023-04-08T05:33:42;102193.13;;;8.98;58.48
62779;BME280;48821;48.796;2.396;2023-04-08T05:34:54;102195.72;;;8.98;58.50
62779;BME280;48821;48.796;2.396;2023-04-08T05:36:04;102196.59;;;8.97;58.46
62779;BME280;48821;48.796;2.396;2023-04-08T05:37:15;102198.34;;;8.97;58.32
62779;BME280;48821;48.796;2.396;2023-04-08T05:38:26;102195.72;;;8.95;58.25
62779;BME280;48821;48.796;2.396;2023-04-08T05:39:37;102194.84;;;8.96;58.78
62779;BME280;48821;48.796;2.396;2023-04-08T05:40:48;102197.47;;;8.95;58.96
62779;BME280;48821;48.796;2.396;2023-04-08T05:41:59;102204.47;;;8.96;58.69
62779;BME280;48821;48.796;2.396;2023-04-08T05:43:11;102197.47;;;8.96;58.91
62779;BME280;48821;48.796;2.396;2023-04-08T05:44:22;102200.09;;;8.96;58.39
62779;BME280;48821;48.796;2.396;2023-04-08T05:45:33;102200.09;;;8.96;58.41
62779;BME280;48821;48.796;2.396;2023-04-08T05:46:44;102202.69;;;8.96;58.36
62779;BME280;48821;48.796;2.396;2023-04-08T05:47:55;102193.97;;;8.97;58.78
62779;BME280;48821;48.796;2.396;2023-04-08T05:49:06;102200.97;;;8.98;58.35
62779;BME280;48821;48.796;2.396;2023-04-08T05:50:17;102203.59;;;8.97;58.40
62779;BME280;48821;48.796;2.396;2023-04-08T05:51:28;102202.69;;;8.96;58.55
62779;BME280;48821;48.796;2.396;2023-04-08T05:52:43;102206.22;;;8.95;58.39
62779;BME280;48821;48.796;2.396;2023-04-08T05:53:56;102211.47;;;8.95;58.66
62779;BME280;48821;48.796;2.396;2023-04-08T05:55:08;102211.47;;;8.95;58.29
62779;BME280;48821;48.796;2.396;2023-04-08T05:56:19;102210.59;;;8.95;58.95
62779;BME280;48821;48.796;2.396;2023-04-08T05:57:31;102217.56;;;8.94;58.55
62779;BME280;48821;48.796;2.396;2023-04-08T05:58:42;102219.34;;;8.94;58.78
62779;BME280;48821;48.796;2.396;2023-04-08T05:59:54;102216.72;;;8.94;58.79
62779;BME280;48821;48.796;2.396;2023-04-08T06:01:07;102223.69;;;8.95;58.50
62779;BME280;48821;48.796;2.396;2023-04-08T06:02:18;102221.97;;;8.95;58.55
62779;BME280;48821;48.796;2.396;2023-04-08T06:03:30;102228.97;;;8.93;58.67
62779;BME280;48821;48.796;2.396;2023-04-08T06:04:42;102224.59;;;8.94;58.56
62779;BME280;48821;48.796;2.396;2023-04-08T06:05:53;102232.47;;;8.94;58.65
62779;BME280;48821;48.796;2.396;2023-04-08T06:07:07;102235.94;;;8.94;58.57
62779;BME280;48821;48.796;2.396;2023-04-08T06:08:21;102229.81;;;8.95;58.70
62779;BME280;48821;48.796;2.396;2023-04-08T06:09:36;102228.94;;;8.96;58.75
62779;BME280;48821;48.796;2.396;2023-04-08T06:10:49;102230.69;;;8.97;59.24
62779;BME280;48821;48.796;2.396;2023-04-08T06:11:59;102240.31;;;9.00;58.68
62779;BME280;48821;48.796;2.396;2023-04-08T06:13:11;102234.19;;;8.99;58.83
62779;BME280;48821;48.796;2.396;2023-04-08T06:14:23;102234.19;;;8.99;58.57
62779;BME280;48821;48.796;2.396;2023-04-08T06:15:36;102230.69;;;9.00;58.72
62779;BME280;48821;48.796;2.396;2023-04-08T06:16:48;102237.69;;;8.98;58.66
62779;BME280;48821;48.796;2.396;2023-04-08T06:18:00;102238.53;;;8.99;59.03
62779;BME280;48821;48.796;2.396;2023-04-08T06:19:10;102236.81;;;8.98;58.60
62779;BME280;48821;48.796;2.396;2023-04-08T06:20:21;102231.56;;;8.99;58.55
62779;BME280;48821;48.796;2.396;2023-04-08T06:21:33;102235.03;;;9.02;59.00
62779;BME280;48821;48.796;2.396;2023-04-08T06:22:45;102235.03;;;9.02;59.18
62779;BME280;48821;48.796;2.396;2023-04-08T06:23:57;102234.19;;;9.03;58.75
62779;BME280;48821;48.796;2.396;2023-04-08T06:25:08;102226.31;;;9.03;58.53
62779;BME280;48821;48.796;2.396;2023-04-08T06:26:20;102239.41;;;9.04;59.00